createdAt,value
2018-07-21T00:02:23.232Z,11.73
2018-07-21T00:04:51.873Z,8.57
2018-07-21T00:07:20.808Z,11.17
2018-07-21T00:09:49.476Z,8.20
2018-07-21T00:12:18.048Z,8.70
2018-07-21T00:14:46.629Z,9.77
2018-07-21T00:17:15.308Z,12.50
2018-07-21T00:19:43.873Z,9.10
2018-07-21T00:22:12.940Z,7.83
2018-07-21T00:24:42.061Z,11.27
2018-07-21T00:27:20.360Z,7.77
2018-07-21T00:29:49.536Z,10.27
2018-07-21T00:32:18.711Z,11.60
2018-07-21T00:34:48.417Z,8.90
2018-07-21T00:37:18.727Z,11.00
2018-07-21T00:39:47.342Z,9.43
2018-07-21T00:42:16.120Z,9.47
2018-07-21T00:44:44.750Z,9.97
2018-07-21T00:47:13.383Z,9.57
2018-07-21T00:49:42.039Z,8.87
2018-07-21T00:52:10.685Z,9.70
2018-07-21T00:54:39.397Z,7.60
2018-07-21T00:57:08.125Z,7.53
2018-07-21T00:59:36.822Z,8.67
2018-07-21T01:02:05.423Z,9.73
2018-07-21T01:04:34.056Z,12.03
2018-07-21T01:07:02.631Z,8.43
2018-07-21T01:09:31.242Z,8.40
2018-07-21T01:11:59.883Z,8.80
2018-07-21T01:14:28.544Z,11.67
2018-07-21T01:16:57.005Z,9.13
2018-07-21T01:19:25.708Z,10.10
2018-07-21T01:21:54.333Z,9.57
2018-07-21T01:24:22.948Z,8.03
2018-07-21T01:26:51.532Z,11.20
2018-07-21T01:29:20.143Z,8.47
2018-07-21T01:31:48.751Z,9.70
2018-07-21T01:34:17.412Z,10.53
2018-07-21T01:36:46.011Z,8.50
2018-07-21T01:39:14.696Z,16.23
2018-07-21T01:41:43.295Z,11.13
2018-07-21T01:44:11.948Z,13.63
2018-07-21T01:46:40.958Z,11.53
2018-07-21T01:49:09.621Z,10.47
2018-07-21T01:51:38.109Z,12.47
2018-07-21T01:54:06.732Z,10.60
2018-07-21T01:56:35.431Z,11.33
2018-07-21T01:59:04.123Z,12.07
2018-07-21T02:01:32.788Z,12.63
2018-07-21T02:04:01.425Z,9.70
2018-07-21T02:06:29.870Z,12.87
2018-07-21T02:08:58.556Z,12.37
2018-07-21T02:11:27.171Z,11.47
2018-07-21T02:13:55.843Z,12.93
2018-07-21T02:16:24.483Z,10.93
2018-07-21T02:18:53.131Z,11.30
2018-07-21T02:21:21.760Z,10.60
2018-07-21T02:23:50.412Z,10.83
2018-07-21T02:26:19.001Z,15.40
2018-07-21T02:28:47.596Z,12.20
2018-07-21T02:31:16.191Z,11.70
2018-07-21T02:33:44.757Z,12.20
2018-07-21T02:36:13.400Z,12.17
2018-07-21T02:38:42.076Z,11.97
2018-07-21T02:41:10.736Z,11.87
2018-07-21T02:43:39.402Z,11.97
2018-07-21T02:46:08.086Z,12.47
2018-07-21T02:48:36.751Z,11.40
2018-07-21T02:51:05.472Z,10.00
2018-07-21T02:53:34.131Z,11.17
2018-07-21T02:56:02.807Z,12.67
2018-07-21T02:58:31.427Z,12.40
2018-07-21T03:01:00.077Z,14.13
2018-07-21T03:03:28.720Z,15.57
2018-07-21T03:05:57.331Z,14.27
2018-07-21T03:08:25.978Z,13.40
2018-07-21T03:10:54.567Z,14.40
2018-07-21T03:13:23.141Z,16.20
2018-07-21T03:15:51.766Z,13.97
2018-07-21T03:18:20.488Z,15.93
2018-07-21T03:20:49.108Z,17.63
2018-07-21T03:23:17.793Z,15.43
2018-07-21T03:25:46.448Z,21.17
2018-07-21T03:28:15.133Z,17.23
2018-07-21T03:30:43.813Z,23.53
2018-07-21T03:33:12.450Z,24.87
2018-07-21T03:35:41.148Z,26.23
2018-07-21T03:38:09.582Z,26.13
2018-07-21T03:40:38.297Z,24.50
2018-07-21T03:43:07.045Z,29.07
2018-07-21T03:45:35.748Z,28.97
2018-07-21T03:48:04.451Z,26.07
2018-07-21T03:50:33.108Z,27.20
2018-07-21T03:53:01.893Z,23.70
2018-07-21T03:55:30.455Z,25.23
2018-07-21T03:57:59.117Z,23.07
2018-07-21T04:00:27.813Z,26.83
2018-07-21T04:02:56.493Z,25.57
2018-07-21T04:05:25.128Z,26.83
2018-07-21T04:07:53.735Z,28.43
2018-07-21T04:10:22.444Z,29.57
2018-07-21T04:12:51.046Z,36.90
2018-07-21T04:15:19.610Z,36.57
2018-07-21T04:17:48.183Z,34.57
2018-07-21T04:20:16.803Z,30.23
2018-07-21T04:22:45.480Z,28.40
2018-07-21T04:25:14.103Z,28.17
2018-07-21T04:27:42.695Z,29.53
2018-07-21T04:30:11.303Z,26.70
2018-07-21T04:32:39.768Z,25.87
2018-07-21T04:35:08.575Z,27.97
2018-07-21T04:37:37.277Z,26.37
2018-07-21T04:40:07.398Z,25.57
2018-07-21T04:42:36.116Z,26.33
2018-07-21T04:45:04.811Z,25.00
2018-07-21T04:47:33.448Z,25.67
2018-07-21T04:50:02.105Z,24.87
2018-07-21T04:52:30.557Z,22.20
2018-07-21T04:54:59.215Z,23.60
2018-07-21T04:57:28.015Z,21.70
2018-07-21T04:59:56.708Z,22.97
2018-07-21T05:02:25.357Z,22.27
2018-07-21T05:04:53.982Z,22.03
2018-07-21T05:07:22.765Z,23.43
2018-07-21T05:09:51.420Z,24.50
2018-07-21T05:12:20.058Z,24.13
2018-07-21T05:14:48.646Z,21.90
2018-07-21T05:17:17.295Z,23.90
2018-07-21T05:19:45.923Z,22.67
2018-07-21T05:22:14.373Z,22.40
2018-07-21T05:24:42.990Z,23.63
2018-07-21T05:27:11.639Z,25.73
2018-07-21T05:29:40.350Z,30.57
2018-07-21T05:32:09.070Z,31.90
2018-07-21T05:34:37.783Z,31.67
2018-07-21T05:37:06.645Z,32.27
2018-07-21T05:39:35.385Z,31.27
2018-07-21T05:42:04.298Z,33.67
2018-07-21T05:44:32.791Z,31.30
2018-07-21T05:47:01.669Z,30.53
2018-07-21T05:49:30.223Z,30.87
2018-07-21T05:51:58.895Z,31.80
2018-07-21T05:54:27.597Z,29.83
2018-07-21T05:56:56.298Z,31.03
2018-07-21T05:59:24.941Z,32.97
2018-07-21T06:01:53.523Z,30.13
2018-07-21T06:04:22.896Z,31.40
2018-07-21T06:06:51.791Z,32.47
2018-07-21T06:09:20.459Z,31.93
2018-07-21T06:11:48.909Z,29.03
2018-07-21T06:14:17.558Z,28.97
2018-07-21T06:16:46.788Z,29.20
2018-07-21T06:19:16.813Z,30.63
2018-07-21T06:21:45.485Z,30.63
2018-07-21T06:24:14.156Z,30.87
2018-07-21T06:26:42.786Z,27.80
2018-07-21T06:29:11.484Z,27.17
2018-07-21T06:31:40.189Z,27.87
2018-07-21T06:34:08.844Z,29.03
2018-07-21T06:36:37.502Z,28.03
2018-07-21T06:39:09.583Z,27.13
2018-07-21T06:41:38.221Z,26.07
2018-07-21T06:44:07.301Z,28.43
2018-07-21T06:46:36.023Z,26.13
2018-07-21T06:49:04.758Z,23.67
2018-07-21T06:51:33.525Z,23.60
2018-07-21T06:54:02.192Z,21.93
2018-07-21T06:56:30.928Z,22.80
2018-07-21T06:58:59.555Z,21.83
2018-07-21T07:01:28.399Z,23.87
2018-07-21T07:03:57.045Z,21.50
2018-07-21T07:06:25.758Z,22.27
2018-07-21T07:08:54.358Z,20.23
2018-07-21T07:11:22.978Z,21.33
2018-07-21T07:13:51.655Z,20.87
2018-07-21T07:16:20.326Z,16.90
2018-07-21T07:18:48.943Z,19.27
2018-07-21T07:21:17.606Z,16.85
2018-07-21T07:23:46.303Z,17.40
2018-07-21T07:26:14.990Z,17.93
2018-07-21T07:28:43.628Z,14.07
2018-07-21T07:31:12.216Z,14.77
2018-07-21T07:33:40.939Z,14.50
2018-07-21T07:36:09.563Z,16.90
2018-07-21T07:38:38.236Z,14.87
2018-07-21T07:41:06.690Z,13.65
2018-07-21T07:43:35.343Z,12.20
2018-07-21T07:46:06.380Z,16.20
2018-07-21T07:48:35.396Z,13.30
2018-07-21T07:51:04.011Z,14.10
2018-07-21T07:53:34.582Z,13.53
2018-07-21T07:56:02.982Z,15.90
2018-07-21T07:58:31.611Z,12.87
2018-07-21T08:01:00.342Z,14.33
2018-07-21T08:03:29.073Z,12.70
2018-07-21T08:05:57.851Z,14.07
2018-07-21T08:08:26.589Z,14.83
2018-07-21T08:10:55.231Z,13.07
2018-07-21T08:13:24.124Z,12.63
2018-07-21T08:15:52.730Z,11.50
2018-07-21T08:18:21.541Z,11.47
2018-07-21T08:20:50.183Z,13.43
2018-07-21T08:23:18.913Z,11.20
2018-07-21T08:25:47.824Z,11.57
2018-07-21T08:28:17.264Z,11.55
2018-07-21T08:30:45.978Z,11.55
2018-07-21T08:33:15.379Z,10.63
2018-07-21T08:35:44.058Z,11.85
2018-07-21T08:38:12.649Z,11.37
2018-07-21T08:40:42.291Z,11.03
2018-07-21T08:43:11.006Z,11.93
2018-07-21T08:45:39.673Z,10.95
2018-07-21T08:48:08.723Z,11.55
2018-07-21T08:50:37.381Z,10.57
2018-07-21T08:53:06.009Z,10.53
2018-07-21T08:55:34.753Z,9.00
2018-07-21T08:58:04.160Z,12.27
2018-07-21T09:00:33.027Z,10.67
2018-07-21T09:03:01.794Z,11.80
2018-07-21T09:05:30.456Z,10.23
2018-07-21T09:07:59.149Z,9.28
2018-07-21T09:10:27.853Z,9.15
2018-07-21T09:12:57.591Z,10.88
2018-07-21T09:15:26.341Z,10.20
2018-07-21T09:17:55.004Z,9.33
2018-07-21T09:20:24.390Z,10.82
2018-07-21T09:22:53.116Z,8.55
2018-07-21T09:25:21.910Z,11.15
2018-07-21T09:27:51.712Z,10.38
2018-07-21T09:30:20.383Z,9.23
2018-07-21T09:32:49.045Z,9.55
2018-07-21T09:35:18.873Z,9.95
2018-07-21T09:37:47.591Z,9.03
2018-07-21T09:40:17.491Z,9.95
2018-07-21T09:42:46.180Z,9.23
2018-07-21T09:45:14.851Z,8.73
2018-07-21T09:47:43.645Z,10.00
2018-07-21T09:50:12.363Z,12.25
2018-07-21T09:52:41.196Z,13.20
2018-07-21T09:55:10.103Z,12.63
2018-07-21T09:57:38.842Z,8.98
2018-07-21T10:00:10.758Z,15.08
2018-07-21T10:02:39.558Z,10.45
2018-07-21T10:05:09.173Z,9.35
2018-07-21T10:07:38.982Z,10.30
2018-07-21T10:10:07.838Z,8.53
2018-07-21T10:12:36.699Z,11.95
2018-07-21T10:15:06.338Z,11.35
2018-07-21T10:17:35.012Z,10.00
2018-07-21T10:20:04.089Z,10.50
2018-07-21T10:22:32.882Z,19.27
2018-07-21T10:25:06.853Z,10.90
2018-07-21T10:27:41.214Z,9.90
2018-07-21T10:30:09.883Z,9.08
2018-07-21T10:32:38.673Z,25.40
2018-07-21T10:35:07.848Z,10.03
2018-07-21T10:37:36.741Z,9.48
2018-07-21T10:40:05.584Z,11.48
2018-07-21T10:42:35.052Z,11.97
2018-07-21T10:45:03.735Z,9.18
2018-07-21T10:47:33.181Z,10.88
2018-07-21T10:50:01.891Z,8.38
2018-07-21T10:52:30.586Z,17.65
2018-07-21T10:54:59.413Z,11.45
2018-07-21T10:57:28.570Z,9.50
2018-07-21T10:59:57.867Z,10.90
2018-07-21T11:02:26.554Z,10.08
2018-07-21T11:04:55.367Z,9.68
2018-07-21T11:07:24.222Z,9.40
2018-07-21T11:09:53.011Z,9.93
2018-07-21T11:12:21.713Z,12.70
2018-07-21T11:14:51.587Z,9.03
2018-07-21T11:17:20.598Z,11.43
2018-07-21T11:19:49.289Z,9.05
2018-07-21T11:22:18.026Z,9.15
2018-07-21T11:24:46.743Z,8.18
2018-07-21T11:27:15.540Z,8.15
2018-07-21T11:29:44.278Z,5.42
2018-07-21T11:32:13.132Z,6.55
2018-07-21T11:34:42.027Z,6.20
2018-07-21T11:37:10.667Z,4.78
2018-07-21T11:39:39.399Z,5.42
2018-07-21T11:42:08.132Z,4.75
2018-07-21T11:44:36.941Z,7.58
2018-07-21T11:47:05.567Z,6.12
2018-07-21T11:49:34.776Z,6.15
2018-07-21T11:52:03.584Z,6.65
2018-07-21T11:54:32.274Z,4.08
2018-07-21T11:57:01.983Z,5.75
2018-07-21T11:59:31.927Z,6.87
2018-07-21T12:02:00.788Z,6.20
2018-07-21T12:04:30.509Z,4.05
2018-07-21T12:06:59.201Z,3.92
2018-07-21T12:09:27.872Z,7.03
2018-07-21T12:11:56.660Z,7.15
2018-07-21T12:14:25.456Z,3.92
2018-07-21T12:16:54.076Z,5.08
2018-07-21T12:19:22.774Z,4.92
2018-07-21T12:21:51.513Z,5.90
2018-07-21T12:24:20.286Z,3.80
2018-07-21T12:26:48.928Z,4.87
2018-07-21T12:29:18.231Z,3.90
2018-07-21T12:31:47.016Z,5.33
2018-07-21T12:34:15.801Z,4.97
2018-07-21T12:36:44.731Z,5.00
2018-07-21T12:39:13.353Z,6.87
2018-07-21T12:41:42.137Z,3.90
2018-07-21T12:44:10.804Z,5.22
2018-07-21T12:46:39.549Z,3.87
2018-07-21T12:49:08.259Z,4.75
2018-07-21T12:51:36.787Z,6.08
2018-07-21T12:54:05.597Z,5.58
2018-07-21T12:56:34.332Z,3.75
2018-07-21T12:59:03.312Z,6.10
2018-07-21T13:01:32.031Z,4.22
2018-07-21T13:04:01.350Z,3.92
2018-07-21T13:06:30.086Z,5.70
2018-07-21T13:08:58.775Z,4.90
2018-07-21T13:11:27.613Z,4.97
2018-07-21T13:13:56.283Z,5.67
2018-07-21T13:16:25.079Z,5.95
2018-07-21T13:18:53.759Z,5.35
2018-07-21T13:21:22.971Z,6.22
2018-07-21T13:23:51.818Z,6.47
2018-07-21T13:26:20.669Z,5.22
2018-07-21T13:28:50.044Z,3.62
2018-07-21T13:31:19.423Z,7.33
2018-07-21T13:33:48.152Z,5.08
2018-07-21T13:36:16.876Z,5.30
2018-07-21T13:38:45.850Z,6.05
2018-07-21T13:41:14.676Z,5.75
2018-07-21T13:43:43.556Z,5.30
2018-07-21T13:46:12.292Z,4.85
2018-07-21T13:48:41.049Z,5.65
2018-07-21T13:51:09.879Z,5.67
2018-07-21T13:53:38.606Z,7.58
2018-07-21T13:56:07.360Z,5.10
2018-07-21T13:58:36.252Z,6.58
2018-07-21T14:01:05.129Z,5.55
2018-07-21T14:03:34.475Z,6.37
2018-07-21T14:06:04.291Z,5.67
2018-07-21T14:08:33.976Z,5.28
2018-07-21T14:11:02.896Z,3.10
2018-07-21T14:13:31.687Z,4.45
2018-07-21T14:16:00.585Z,4.58
2018-07-21T14:18:29.285Z,4.83
2018-07-21T14:20:58.805Z,4.10
2018-07-21T14:23:27.619Z,4.53
2018-07-21T14:25:56.495Z,3.67
2018-07-21T14:28:25.277Z,6.30
2018-07-21T14:30:54.150Z,4.05
2018-07-21T14:33:22.890Z,3.33
2018-07-21T14:35:51.733Z,6.05
2018-07-21T14:38:20.481Z,4.55
2018-07-21T14:40:49.193Z,4.80
2018-07-21T14:43:18.795Z,3.50
2018-07-21T14:45:47.851Z,4.97
2018-07-21T14:48:16.563Z,3.02
2018-07-21T14:50:46.996Z,5.47
2018-07-21T14:53:16.319Z,4.67
2018-07-21T14:55:45.849Z,3.98
2018-07-21T14:58:14.605Z,6.78
2018-07-21T15:00:43.904Z,3.55
2018-07-21T15:03:12.780Z,5.70
2018-07-21T15:05:41.554Z,3.72
2018-07-21T15:08:10.358Z,4.72
2018-07-21T15:10:39.083Z,5.55
2018-07-21T15:13:07.824Z,3.35
2018-07-21T15:15:36.564Z,6.37
2018-07-21T15:18:05.367Z,4.97
2018-07-21T15:20:34.079Z,5.53
2018-07-21T15:23:02.997Z,5.80
2018-07-21T15:25:31.676Z,3.85
2018-07-21T15:28:01.163Z,4.92
2018-07-21T15:30:29.899Z,3.62
2018-07-21T15:32:58.639Z,3.90
2018-07-21T15:35:27.378Z,5.50
2018-07-21T15:37:56.284Z,9.50
2018-07-21T15:40:25.684Z,5.35
2018-07-21T15:42:54.426Z,6.35
2018-07-21T15:45:23.258Z,6.17
2018-07-21T15:47:51.899Z,3.55
2018-07-21T15:50:20.679Z,6.33
2018-07-21T15:52:49.428Z,4.60
2018-07-21T15:55:19.119Z,6.20
2018-07-21T15:57:47.593Z,5.30
2018-07-21T16:00:16.272Z,5.35
2018-07-21T16:02:44.826Z,6.42
2018-07-21T16:05:13.601Z,5.10
2018-07-21T16:07:42.338Z,7.30
2018-07-21T16:10:11.087Z,5.72
2018-07-21T16:12:39.838Z,6.30
2018-07-21T16:15:08.525Z,6.25
2018-07-21T16:17:37.246Z,4.20
2018-07-21T16:20:06.183Z,4.45
2018-07-21T16:22:34.983Z,5.62
2018-07-21T16:25:04.982Z,5.72
2018-07-21T16:27:33.831Z,5.25
2018-07-21T16:30:02.571Z,6.10
2018-07-21T16:32:31.342Z,4.42
2018-07-21T16:34:59.996Z,5.80
2018-07-21T16:37:28.676Z,7.03
2018-07-21T16:39:57.341Z,4.87
2018-07-21T16:42:26.086Z,6.15
2018-07-21T16:44:54.719Z,6.85
2018-07-21T16:47:23.395Z,5.58
2018-07-21T16:49:52.103Z,6.40
2018-07-21T16:52:21.316Z,7.30
2018-07-21T16:54:50.097Z,6.28
2018-07-21T16:57:18.824Z,7.65
2018-07-21T16:59:47.676Z,7.60
2018-07-21T17:02:17.186Z,7.33
2018-07-21T17:04:46.926Z,5.65
2018-07-21T17:07:15.698Z,7.30
2018-07-21T17:09:45.138Z,6.97
2018-07-21T17:12:13.771Z,8.23
2018-07-21T17:14:42.464Z,6.17
2018-07-21T17:17:11.840Z,6.47
2018-07-21T17:19:40.603Z,7.22
2018-07-21T17:22:09.291Z,6.10
2018-07-21T17:24:37.923Z,6.42
2018-07-21T17:27:06.587Z,8.10
2018-07-21T17:29:35.291Z,5.60
2018-07-21T17:32:03.903Z,6.65
2018-07-21T17:34:32.363Z,9.35
2018-07-21T17:37:01.119Z,10.85
2018-07-21T17:39:29.758Z,6.90
2018-07-21T17:41:58.223Z,4.85
2018-07-21T17:44:26.948Z,9.40
2018-07-21T17:46:55.600Z,8.63
2018-07-21T17:49:24.046Z,4.80
2018-07-21T17:51:52.779Z,6.60
2018-07-21T17:54:21.464Z,5.25
2018-07-21T17:56:49.917Z,9.05
2018-07-21T17:59:18.623Z,4.65
2018-07-21T18:01:47.375Z,6.37
2018-07-21T18:04:16.003Z,6.65
2018-07-21T18:06:44.742Z,6.12
2018-07-21T18:09:13.390Z,7.60
2018-07-21T18:11:42.065Z,6.70
2018-07-21T18:14:10.750Z,6.50
2018-07-21T18:16:39.573Z,7.40
2018-07-21T18:19:08.316Z,9.68
2018-07-21T18:21:36.785Z,7.87
2018-07-21T18:24:05.470Z,6.95
2018-07-21T18:26:34.158Z,6.58
2018-07-21T18:29:02.930Z,6.25
2018-07-21T18:31:31.707Z,6.80
2018-07-21T18:34:00.437Z,8.13
2018-07-21T18:36:29.112Z,6.50
2018-07-21T18:38:57.896Z,7.75
2018-07-21T18:41:26.714Z,5.97
2018-07-21T18:43:55.412Z,5.62
2018-07-21T18:46:24.138Z,6.30
2018-07-21T18:48:52.775Z,7.75
2018-07-21T18:51:21.928Z,5.30
2018-07-21T18:53:50.550Z,6.30
2018-07-21T18:56:19.196Z,6.60
2018-07-21T18:58:47.825Z,6.30
2018-07-21T19:01:16.565Z,8.00
2018-07-21T19:03:45.190Z,7.45
2018-07-21T19:06:13.863Z,6.60
2018-07-21T19:08:48.050Z,8.25
2018-07-21T19:11:16.723Z,6.23
2018-07-21T19:13:45.438Z,7.67
2018-07-21T19:16:48.783Z,6.67
2018-07-21T19:19:17.561Z,7.60
2018-07-21T19:21:47.024Z,10.50
2018-07-21T19:24:15.501Z,9.70
2018-07-21T19:26:49.801Z,7.63
2018-07-21T19:29:18.608Z,6.13
2018-07-21T19:31:53.036Z,6.30
2018-07-21T19:34:21.778Z,6.43
2018-07-21T19:36:50.395Z,6.07
2018-07-21T19:39:19.788Z,7.43
2018-07-21T19:41:54.506Z,8.20
2018-07-21T19:44:24.663Z,7.90
2018-07-21T19:46:53.441Z,10.03
2018-07-21T19:49:22.241Z,7.40
2018-07-21T19:51:51.663Z,7.73
2018-07-21T19:54:21.562Z,6.70
2018-07-21T19:56:50.342Z,6.23
2018-07-21T19:59:19.739Z,5.50
2018-07-21T20:01:48.244Z,6.07
2018-07-21T20:04:16.971Z,8.70
2018-07-21T20:06:45.734Z,9.30
2018-07-21T20:09:14.451Z,10.37
2018-07-21T20:11:43.119Z,8.27
2018-07-21T20:14:12.623Z,9.17
2018-07-21T20:16:41.230Z,8.67
2018-07-21T20:19:09.915Z,6.13
2018-07-21T20:21:38.575Z,6.97
2018-07-21T20:24:07.383Z,12.67
2018-07-21T20:26:36.045Z,7.67
2018-07-21T20:29:04.752Z,7.50
2018-07-21T20:31:33.667Z,5.60
2018-07-21T20:34:02.184Z,8.43
2018-07-21T20:36:30.910Z,10.43
2018-07-21T20:38:59.621Z,5.87
2018-07-21T20:41:28.241Z,9.40
2018-07-21T20:43:56.996Z,8.43
2018-07-21T20:46:26.143Z,8.53
2018-07-21T20:48:54.927Z,7.80
2018-07-21T20:51:23.754Z,9.20
2018-07-21T20:53:52.566Z,7.30
2018-07-21T20:56:21.469Z,5.70
2018-07-21T20:58:50.263Z,7.87
2018-07-21T21:01:18.941Z,9.77
2018-07-21T21:03:47.648Z,5.30
2018-07-21T21:06:16.811Z,6.97
2018-07-21T21:08:46.353Z,8.20
2018-07-21T21:11:15.092Z,9.80
2018-07-21T21:13:43.779Z,8.57
2018-07-21T21:16:12.322Z,7.53
2018-07-21T21:18:41.766Z,7.23
2018-07-21T21:21:10.546Z,8.43
2018-07-21T21:23:39.066Z,9.20
2018-07-21T21:26:07.856Z,7.20
2018-07-21T21:28:36.653Z,11.77
2018-07-21T21:31:05.448Z,9.90
2018-07-21T21:33:34.644Z,9.17
2018-07-21T21:36:03.431Z,10.20
2018-07-21T21:38:32.624Z,10.20
2018-07-21T21:41:01.317Z,10.50
2018-07-21T21:43:30.024Z,8.47
2018-07-21T21:45:58.709Z,8.60
2018-07-21T21:48:28.066Z,7.37
2018-07-21T21:50:57.245Z,7.23
2018-07-21T21:53:25.724Z,9.93
2018-07-21T21:55:54.256Z,7.73
2018-07-21T21:58:23.053Z,8.13
2018-07-21T22:01:03.956Z,8.53
2018-07-21T22:03:32.656Z,7.57
2018-07-21T22:06:01.458Z,8.23
2018-07-21T22:08:31.059Z,8.03
2018-07-21T22:10:59.772Z,9.00
2018-07-21T22:13:28.993Z,12.63
2018-07-21T22:15:58.221Z,7.47
2018-07-21T22:18:27.194Z,10.03
2018-07-21T22:20:55.944Z,8.60
2018-07-21T22:23:24.611Z,10.00
2018-07-21T22:25:53.261Z,9.50
2018-07-21T22:28:21.733Z,9.03
2018-07-21T22:30:50.365Z,11.60
2018-07-21T22:33:19.477Z,9.63
2018-07-21T22:35:48.199Z,9.33
2018-07-21T22:38:16.961Z,7.37
2018-07-21T22:40:45.639Z,9.67
2018-07-21T22:43:14.425Z,10.50
2018-07-21T22:45:43.103Z,8.47
2018-07-21T22:48:12.272Z,9.90
2018-07-21T22:50:41.926Z,10.43
2018-07-21T22:53:10.582Z,9.47
2018-07-21T22:55:39.468Z,7.53
2018-07-21T22:58:08.193Z,6.80
2018-07-21T23:00:37.303Z,10.30
2018-07-21T23:03:06.718Z,8.80
2018-07-21T23:05:35.286Z,11.97
2018-07-21T23:08:03.990Z,15.37
2018-07-21T23:10:33.039Z,10.23
2018-07-21T23:13:02.452Z,10.53
2018-07-21T23:15:31.186Z,9.13
2018-07-21T23:17:59.823Z,10.37
2018-07-21T23:20:28.454Z,11.33
2018-07-21T23:22:57.155Z,11.23
2018-07-21T23:25:25.800Z,12.47
2018-07-21T23:27:54.573Z,10.57
2018-07-21T23:30:23.233Z,10.40
2018-07-21T23:32:51.933Z,10.87
2018-07-21T23:35:20.896Z,9.60
2018-07-21T23:37:49.597Z,9.93
2018-07-21T23:40:18.318Z,11.03
2018-07-21T23:42:48.808Z,11.53
2018-07-21T23:45:17.498Z,10.87
2018-07-21T23:47:46.188Z,13.20
2018-07-21T23:50:15.211Z,11.57
2018-07-21T23:52:43.998Z,13.60
2018-07-21T23:55:12.679Z,10.60
2018-07-21T23:57:41.337Z,9.57
